sensor_id;sensor_type;location;lat;lon;timestamp;P1;durP1;ratioP1;P2;durP2;ratioP2
3022;SDS011;1521;53.584;9.938;2023-09-07T00:01:22;9.87;;;8.20;;
3022;SDS011;1521;53.584;9.938;2023-09-07T00:03:48;9.93;;;8.83;;
3022;SDS011;1521;53.584;9.938;2023-09-07T00:06:13;10.40;;;8.83;;
3022;SDS011;1521;53.584;9.938;2023-09-07T00:08:39;8.77;;;7.77;;
3022;SDS011;1521;53.584;9.938;2023-09-07T00:11:05;8.53;;;7.67;;
3022;SDS011;1521;53.584;9.938;2023-09-07T00:13:31;11.80;;;8.27;;
3022;SDS011;1521;53.584;9.938;2023-09-07T00:15:58;10.20;;;7.70;;
3022;SDS011;1521;53.584;9.938;2023-09-07T00:18:25;8.57;;;7.37;;
3022;SDS011;1521;53.584;9.938;2023-09-07T00:20:51;8.97;;;8.13;;
3022;SDS011;1521;53.584;9.938;2023-09-07T00:23:16;10.03;;;8.77;;
3022;SDS011;1521;53.584;9.938;2023-09-07T00:25:42;9.90;;;8.40;;
3022;SDS011;1521;53.584;9.938;2023-09-07T00:28:08;9.33;;;8.47;;
3022;SDS011;1521;53.584;9.938;2023-09-07T00:30:33;10.07;;;8.07;;
3022;SDS011;1521;53.584;9.938;2023-09-07T00:32:59;9.17;;;8.23;;
3022;SDS011;1521;53.584;9.938;2023-09-07T00:35:24;9.13;;;8.13;;
3022;SDS011;1521;53.584;9.938;2023-09-07T00:37:50;9.50;;;8.07;;
3022;SDS011;1521;53.584;9.938;2023-09-07T00:40:16;17.53;;;9.07;;
3022;SDS011;1521;53.584;9.938;2023-09-07T00:42:42;10.60;;;8.20;;
3022;SDS011;1521;53.584;9.938;2023-09-07T00:45:07;11.00;;;8.83;;
3022;SDS011;1521;53.584;9.938;2023-09-07T00:47:33;9.57;;;8.57;;
3022;SDS011;1521;53.584;9.938;2023-09-07T00:50:03;10.67;;;9.67;;
3022;SDS011;1521;53.584;9.938;2023-09-07T00:52:29;13.33;;;8.60;;
3022;SDS011;1521;53.584;9.938;2023-09-07T00:54:55;8.70;;;7.90;;
3022;SDS011;1521;53.584;9.938;2023-09-07T00:57:21;9.33;;;8.43;;
3022;SDS011;1521;53.584;9.938;2023-09-07T00:59:47;9.60;;;8.70;;
3022;SDS011;1521;53.584;9.938;2023-09-07T01:02:12;10.13;;;9.07;;
3022;SDS011;1521;53.584;9.938;2023-09-07T01:04:38;10.43;;;9.33;;
3022;SDS011;1521;53.584;9.938;2023-09-07T01:07:13;12.80;;;9.13;;
3022;SDS011;1521;53.584;9.938;2023-09-07T01:09:43;9.87;;;8.87;;
3022;SDS011;1521;53.584;9.938;2023-09-07T01:12:15;9.80;;;8.80;;
3022;SDS011;1521;53.584;9.938;2023-09-07T01:14:40;12.13;;;9.63;;
3022;SDS011;1521;53.584;9.938;2023-09-07T01:17:06;9.57;;;8.67;;
3022;SDS011;1521;53.584;9.938;2023-09-07T01:19:33;10.30;;;8.10;;
3022;SDS011;1521;53.584;9.938;2023-09-07T01:21:59;10.43;;;9.43;;
3022;SDS011;1521;53.584;9.938;2023-09-07T01:24:26;10.20;;;9.10;;
3022;SDS011;1521;53.584;9.938;2023-09-07T01:26:55;11.87;;;8.90;;
3022;SDS011;1521;53.584;9.938;2023-09-07T01:29:24;10.63;;;8.50;;
3022;SDS011;1521;53.584;9.938;2023-09-07T01:31:52;10.83;;;9.53;;
3022;SDS011;1521;53.584;9.938;2023-09-07T01:34:18;16.70;;;8.70;;
3022;SDS011;1521;53.584;9.938;2023-09-07T01:36:43;10.50;;;8.80;;
3022;SDS011;1521;53.584;9.938;2023-09-07T01:39:09;11.40;;;8.83;;
3022;SDS011;1521;53.584;9.938;2023-09-07T01:41:34;9.93;;;8.90;;
3022;SDS011;1521;53.584;9.938;2023-09-07T01:44:00;11.13;;;9.13;;
3022;SDS011;1521;53.584;9.938;2023-09-07T01:46:26;9.93;;;8.93;;
3022;SDS011;1521;53.584;9.938;2023-09-07T01:48:51;10.17;;;9.20;;
3022;SDS011;1521;53.584;9.938;2023-09-07T01:51:17;12.00;;;10.00;;
3022;SDS011;1521;53.584;9.938;2023-09-07T01:53:42;9.63;;;8.73;;
3022;SDS011;1521;53.584;9.938;2023-09-07T01:56:08;11.80;;;8.40;;
3022;SDS011;1521;53.584;9.938;2023-09-07T01:58:34;8.87;;;8.07;;
3022;SDS011;1521;53.584;9.938;2023-09-07T02:01:01;10.83;;;8.63;;
3022;SDS011;1521;53.584;9.938;2023-09-07T02:03:27;9.17;;;8.27;;
3022;SDS011;1521;53.584;9.938;2023-09-07T02:05:53;9.60;;;8.20;;
3022;SDS011;1521;53.584;9.938;2023-09-07T02:08:19;10.20;;;9.30;;
3022;SDS011;1521;53.584;9.938;2023-09-07T02:10:44;11.07;;;9.90;;
3022;SDS011;1521;53.584;9.938;2023-09-07T02:13:10;9.07;;;8.10;;
3022;SDS011;1521;53.584;9.938;2023-09-07T02:15:39;10.00;;;9.00;;
3022;SDS011;1521;53.584;9.938;2023-09-07T02:18:05;9.37;;;8.40;;
3022;SDS011;1521;53.584;9.938;2023-09-07T02:20:34;10.00;;;9.00;;
3022;SDS011;1521;53.584;9.938;2023-09-07T02:22:59;10.47;;;8.80;;
3022;SDS011;1521;53.584;9.938;2023-09-07T02:25:25;11.03;;;8.53;;
3022;SDS011;1521;53.584;9.938;2023-09-07T02:27:52;10.43;;;9.43;;
3022;SDS011;1521;53.584;9.938;2023-09-07T02:30:18;10.20;;;9.27;;
3022;SDS011;1521;53.584;9.938;2023-09-07T02:32:44;10.83;;;8.80;;
3022;SDS011;1521;53.584;9.938;2023-09-07T02:35:09;12.47;;;9.43;;
3022;SDS011;1521;53.584;9.938;2023-09-07T02:37:35;9.57;;;8.53;;
3022;SDS011;1521;53.584;9.938;2023-09-07T02:40:01;10.40;;;8.97;;
3022;SDS011;1521;53.584;9.938;2023-09-07T02:42:31;11.83;;;9.30;;
3022;SDS011;1521;53.584;9.938;2023-09-07T02:44:57;10.23;;;8.67;;
3022;SDS011;1521;53.584;9.938;2023-09-07T02:47:23;9.83;;;8.90;;
3022;SDS011;1521;53.584;9.938;2023-09-07T02:49:48;12.70;;;9.10;;
3022;SDS011;1521;53.584;9.938;2023-09-07T02:52:14;12.60;;;9.30;;
3022;SDS011;1521;53.584;9.938;2023-09-07T02:54:39;8.90;;;8.10;;
3022;SDS011;1521;53.584;9.938;2023-09-07T02:57:06;9.20;;;8.20;;
3022;SDS011;1521;53.584;9.938;2023-09-07T02:59:32;9.47;;;8.53;;
3022;SDS011;1521;53.584;9.938;2023-09-07T03:01:58;14.40;;;8.60;;
3022;SDS011;1521;53.584;9.938;2023-09-07T03:04:23;10.00;;;9.00;;
3022;SDS011;1521;53.584;9.938;2023-09-07T03:06:49;9.73;;;8.83;;
3022;SDS011;1521;53.584;9.938;2023-09-07T03:09:14;9.93;;;8.90;;
3022;SDS011;1521;53.584;9.938;2023-09-07T03:11:40;9.90;;;8.90;;
3022;SDS011;1521;53.584;9.938;2023-09-07T03:14:06;9.63;;;8.50;;
3022;SDS011;1521;53.584;9.938;2023-09-07T03:16:31;9.77;;;8.53;;
3022;SDS011;1521;53.584;9.938;2023-09-07T03:18:57;10.77;;;9.37;;
3022;SDS011;1521;53.584;9.938;2023-09-07T03:21:23;9.97;;;9.07;;
3022;SDS011;1521;53.584;9.938;2023-09-07T03:23:54;10.03;;;9.03;;
3022;SDS011;1521;53.584;9.938;2023-09-07T03:26:22;13.60;;;9.40;;
3022;SDS011;1521;53.584;9.938;2023-09-07T03:28:48;10.90;;;9.23;;
3022;SDS011;1521;53.584;9.938;2023-09-07T03:31:14;9.77;;;8.87;;
3022;SDS011;1521;53.584;9.938;2023-09-07T03:33:40;11.20;;;10.10;;
3022;SDS011;1521;53.584;9.938;2023-09-07T03:36:05;12.70;;;10.33;;
3022;SDS011;1521;53.584;9.938;2023-09-07T03:38:31;11.07;;;9.77;;
3022;SDS011;1521;53.584;9.938;2023-09-07T03:40:56;11.90;;;9.97;;
3022;SDS011;1521;53.584;9.938;2023-09-07T03:43:22;11.37;;;10.00;;
3022;SDS011;1521;53.584;9.938;2023-09-07T03:45:48;13.63;;;9.30;;
3022;SDS011;1521;53.584;9.938;2023-09-07T03:48:13;11.13;;;9.93;;
3022;SDS011;1521;53.584;9.938;2023-09-07T03:50:39;10.60;;;9.60;;
3022;SDS011;1521;53.584;9.938;2023-09-07T03:53:04;11.03;;;9.90;;
3022;SDS011;1521;53.584;9.938;2023-09-07T03:55:33;11.90;;;10.70;;
3022;SDS011;1521;53.584;9.938;2023-09-07T03:58:06;11.20;;;10.20;;
3022;SDS011;1521;53.584;9.938;2023-09-07T04:00:31;12.10;;;10.40;;
3022;SDS011;1521;53.584;9.938;2023-09-07T04:02:57;11.90;;;10.67;;
3022;SDS011;1521;53.584;9.938;2023-09-07T04:05:22;11.63;;;10.43;;
3022;SDS011;1521;53.584;9.938;2023-09-07T04:07:50;11.60;;;10.50;;
3022;SDS011;1521;53.584;9.938;2023-09-07T04:10:15;12.60;;;9.50;;
3022;SDS011;1521;53.584;9.938;2023-09-07T04:12:41;11.33;;;10.33;;
3022;SDS011;1521;53.584;9.938;2023-09-07T04:15:07;13.30;;;10.93;;
3022;SDS011;1521;53.584;9.938;2023-09-07T04:17:32;13.40;;;10.13;;
3022;SDS011;1521;53.584;9.938;2023-09-07T04:20:05;13.10;;;10.30;;
3022;SDS011;1521;53.584;9.938;2023-09-07T04:22:32;12.97;;;10.80;;
3022;SDS011;1521;53.584;9.938;2023-09-07T04:24:58;11.87;;;10.63;;
3022;SDS011;1521;53.584;9.938;2023-09-07T04:27:23;12.60;;;10.57;;
3022;SDS011;1521;53.584;9.938;2023-09-07T04:29:49;12.20;;;10.83;;
3022;SDS011;1521;53.584;9.938;2023-09-07T04:32:15;13.03;;;11.00;;
3022;SDS011;1521;53.584;9.938;2023-09-07T04:34:40;11.83;;;10.63;;
3022;SDS011;1521;53.584;9.938;2023-09-07T04:37:06;11.50;;;10.30;;
3022;SDS011;1521;53.584;9.938;2023-09-07T04:39:31;13.93;;;10.50;;
3022;SDS011;1521;53.584;9.938;2023-09-07T04:41:57;12.43;;;10.70;;
3022;SDS011;1521;53.584;9.938;2023-09-07T04:44:22;13.10;;;11.33;;
3022;SDS011;1521;53.584;9.938;2023-09-07T04:46:48;12.53;;;11.10;;
3022;SDS011;1521;53.584;9.938;2023-09-07T04:49:15;12.63;;;11.37;;
3022;SDS011;1521;53.584;9.938;2023-09-07T04:51:40;12.27;;;11.07;;
3022;SDS011;1521;53.584;9.938;2023-09-07T04:54:06;13.80;;;12.30;;
3022;SDS011;1521;53.584;9.938;2023-09-07T04:56:31;13.63;;;11.67;;
3022;SDS011;1521;53.584;9.938;2023-09-07T04:58:57;18.00;;;12.13;;
3022;SDS011;1521;53.584;9.938;2023-09-07T05:01:22;13.43;;;11.27;;
3022;SDS011;1521;53.584;9.938;2023-09-07T05:03:49;14.17;;;12.67;;
3022;SDS011;1521;53.584;9.938;2023-09-07T05:06:16;14.57;;;13.03;;
3022;SDS011;1521;53.584;9.938;2023-09-07T05:08:41;13.60;;;12.20;;
3022;SDS011;1521;53.584;9.938;2023-09-07T05:11:07;14.33;;;11.00;;
3022;SDS011;1521;53.584;9.938;2023-09-07T05:13:32;14.63;;;12.10;;
3022;SDS011;1521;53.584;9.938;2023-09-07T05:15:58;12.10;;;10.90;;
3022;SDS011;1521;53.584;9.938;2023-09-07T05:18:29;13.80;;;12.50;;
3022;SDS011;1521;53.584;9.938;2023-09-07T05:20:55;14.37;;;12.87;;
3022;SDS011;1521;53.584;9.938;2023-09-07T05:23:21;15.40;;;13.80;;
3022;SDS011;1521;53.584;9.938;2023-09-07T05:25:48;15.47;;;13.80;;
3022;SDS011;1521;53.584;9.938;2023-09-07T05:28:18;14.57;;;13.17;;
3022;SDS011;1521;53.584;9.938;2023-09-07T05:30:45;19.40;;;14.00;;
3022;SDS011;1521;53.584;9.938;2023-09-07T05:33:11;17.90;;;13.53;;
3022;SDS011;1521;53.584;9.938;2023-09-07T05:35:38;21.13;;;15.17;;
3022;SDS011;1521;53.584;9.938;2023-09-07T05:38:04;16.60;;;14.20;;
3022;SDS011;1521;53.584;9.938;2023-09-07T05:40:34;19.30;;;14.53;;
3022;SDS011;1521;53.584;9.938;2023-09-07T05:43:03;20.00;;;15.30;;
3022;SDS011;1521;53.584;9.938;2023-09-07T05:45:39;21.70;;;15.60;;
3022;SDS011;1521;53.584;9.938;2023-09-07T05:48:06;16.73;;;14.13;;
3022;SDS011;1521;53.584;9.938;2023-09-07T05:50:33;19.90;;;14.87;;
3022;SDS011;1521;53.584;9.938;2023-09-07T05:53:00;18.20;;;15.07;;
3022;SDS011;1521;53.584;9.938;2023-09-07T05:55:26;17.30;;;15.50;;
3022;SDS011;1521;53.584;9.938;2023-09-07T05:57:53;24.10;;;14.90;;
3022;SDS011;1521;53.584;9.938;2023-09-07T06:00:20;16.03;;;14.37;;
3022;SDS011;1521;53.584;9.938;2023-09-07T06:02:46;14.60;;;13.13;;
3022;SDS011;1521;53.584;9.938;2023-09-07T06:05:12;15.00;;;13.50;;
3022;SDS011;1521;53.584;9.938;2023-09-07T06:07:38;14.70;;;12.87;;
3022;SDS011;1521;53.584;9.938;2023-09-07T06:10:03;14.37;;;12.70;;
3022;SDS011;1521;53.584;9.938;2023-09-07T06:12:30;13.87;;;11.90;;
3022;SDS011;1521;53.584;9.938;2023-09-07T06:14:57;13.27;;;11.90;;
3022;SDS011;1521;53.584;9.938;2023-09-07T06:17:22;13.07;;;10.90;;
3022;SDS011;1521;53.584;9.938;2023-09-07T06:19:48;12.10;;;10.97;;
3022;SDS011;1521;53.584;9.938;2023-09-07T06:22:13;13.63;;;10.93;;
3022;SDS011;1521;53.584;9.938;2023-09-07T06:24:39;11.70;;;10.53;;
3022;SDS011;1521;53.584;9.938;2023-09-07T06:27:05;10.87;;;9.87;;
3022;SDS011;1521;53.584;9.938;2023-09-07T06:29:30;13.17;;;10.30;;
3022;SDS011;1521;53.584;9.938;2023-09-07T06:31:56;11.07;;;9.97;;
3022;SDS011;1521;53.584;9.938;2023-09-07T06:34:21;11.23;;;9.47;;
3022;SDS011;1521;53.584;9.938;2023-09-07T06:36:47;10.03;;;8.87;;
3022;SDS011;1521;53.584;9.938;2023-09-07T06:39:12;10.07;;;9.03;;
3022;SDS011;1521;53.584;9.938;2023-09-07T06:41:38;11.97;;;10.03;;
3022;SDS011;1521;53.584;9.938;2023-09-07T06:44:04;10.10;;;8.53;;
3022;SDS011;1521;53.584;9.938;2023-09-07T06:46:29;17.73;;;9.43;;
3022;SDS011;1521;53.584;9.938;2023-09-07T06:48:55;11.13;;;8.40;;
3022;SDS011;1521;53.584;9.938;2023-09-07T06:51:20;11.77;;;8.37;;
3022;SDS011;1521;53.584;9.938;2023-09-07T06:53:46;8.83;;;7.77;;
3022;SDS011;1521;53.584;9.938;2023-09-07T06:56:12;9.67;;;8.43;;
3022;SDS011;1521;53.584;9.938;2023-09-07T06:58:37;9.50;;;8.30;;
3022;SDS011;1521;53.584;9.938;2023-09-07T07:01:03;10.83;;;8.27;;
3022;SDS011;1521;53.584;9.938;2023-09-07T07:03:29;10.77;;;9.70;;
3022;SDS011;1521;53.584;9.938;2023-09-07T07:05:55;9.63;;;8.33;;
3022;SDS011;1521;53.584;9.938;2023-09-07T07:08:22;14.33;;;8.40;;
3022;SDS011;1521;53.584;9.938;2023-09-07T07:10:48;9.50;;;8.40;;
3022;SDS011;1521;53.584;9.938;2023-09-07T07:13:14;10.00;;;7.43;;
3022;SDS011;1521;53.584;9.938;2023-09-07T07:15:41;10.53;;;7.80;;
3022;SDS011;1521;53.584;9.938;2023-09-07T07:18:07;9.07;;;7.40;;
3022;SDS011;1521;53.584;9.938;2023-09-07T07:20:37;8.77;;;7.23;;
3022;SDS011;1521;53.584;9.938;2023-09-07T07:23:03;8.03;;;7.23;;
3022;SDS011;1521;53.584;9.938;2023-09-07T07:25:29;11.33;;;7.97;;
3022;SDS011;1521;53.584;9.938;2023-09-07T07:27:58;11.03;;;7.70;;
3022;SDS011;1521;53.584;9.938;2023-09-07T07:30:26;10.93;;;7.30;;
3022;SDS011;1521;53.584;9.938;2023-09-07T07:32:54;8.23;;;7.30;;
3022;SDS011;1521;53.584;9.938;2023-09-07T07:35:20;8.13;;;7.33;;
3022;SDS011;1521;53.584;9.938;2023-09-07T07:37:46;7.93;;;6.97;;
3022;SDS011;1521;53.584;9.938;2023-09-07T07:40:11;9.40;;;6.90;;
3022;SDS011;1521;53.584;9.938;2023-09-07T07:42:37;10.17;;;6.97;;
3022;SDS011;1521;53.584;9.938;2023-09-07T07:45:03;12.20;;;7.37;;
3022;SDS011;1521;53.584;9.938;2023-09-07T07:47:28;9.93;;;7.10;;
3022;SDS011;1521;53.584;9.938;2023-09-07T07:49:54;7.47;;;6.77;;
3022;SDS011;1521;53.584;9.938;2023-09-07T07:52:19;7.40;;;6.20;;
3022;SDS011;1521;53.584;9.938;2023-09-07T07:54:47;8.63;;;6.87;;
3022;SDS011;1521;53.584;9.938;2023-09-07T07:57:12;7.27;;;6.27;;
3022;SDS011;1521;53.584;9.938;2023-09-07T07:59:38;6.83;;;6.23;;
3022;SDS011;1521;53.584;9.938;2023-09-07T08:02:03;10.43;;;6.80;;
3022;SDS011;1521;53.584;9.938;2023-09-07T08:04:31;11.63;;;6.67;;
3022;SDS011;1521;53.584;9.938;2023-09-07T08:06:57;8.83;;;5.97;;
3022;SDS011;1521;53.584;9.938;2023-09-07T08:09:28;10.90;;;6.50;;
3022;SDS011;1521;53.584;9.938;2023-09-07T08:11:57;7.20;;;6.07;;
3022;SDS011;1521;53.584;9.938;2023-09-07T08:14:23;6.40;;;5.80;;
3022;SDS011;1521;53.584;9.938;2023-09-07T08:16:50;8.70;;;6.20;;
3022;SDS011;1521;53.584;9.938;2023-09-07T08:19:17;9.50;;;6.33;;
3022;SDS011;1521;53.584;9.938;2023-09-07T08:21:42;21.73;;;6.63;;
3022;SDS011;1521;53.584;9.938;2023-09-07T08:24:09;6.90;;;5.40;;
3022;SDS011;1521;53.584;9.938;2023-09-07T08:26:35;9.60;;;5.73;;
3022;SDS011;1521;53.584;9.938;2023-09-07T08:29:01;8.07;;;5.80;;
3022;SDS011;1521;53.584;9.938;2023-09-07T08:31:31;8.10;;;6.17;;
3022;SDS011;1521;53.584;9.938;2023-09-07T08:33:59;7.43;;;5.60;;
3022;SDS011;1521;53.584;9.938;2023-09-07T08:36:29;8.00;;;6.10;;
3022;SDS011;1521;53.584;9.938;2023-09-07T08:38:58;6.30;;;5.50;;
3022;SDS011;1521;53.584;9.938;2023-09-07T08:41:35;8.27;;;5.90;;
3022;SDS011;1521;53.584;9.938;2023-09-07T08:44:06;7.30;;;5.57;;
3022;SDS011;1521;53.584;9.938;2023-09-07T08:46:33;7.33;;;5.93;;
3022;SDS011;1521;53.584;9.938;2023-09-07T08:49:00;7.70;;;6.13;;
3022;SDS011;1521;53.584;9.938;2023-09-07T08:51:27;7.93;;;6.00;;
3022;SDS011;1521;53.584;9.938;2023-09-07T08:53:53;7.60;;;5.97;;
3022;SDS011;1521;53.584;9.938;2023-09-07T08:56:21;6.90;;;5.97;;
3022;SDS011;1521;53.584;9.938;2023-09-07T08:58:47;7.63;;;6.10;;
3022;SDS011;1521;53.584;9.938;2023-09-07T09:01:19;6.90;;;5.83;;
3022;SDS011;1521;53.584;9.938;2023-09-07T09:03:46;7.53;;;5.37;;
3022;SDS011;1521;53.584;9.938;2023-09-07T09:06:13;6.77;;;6.17;;
3022;SDS011;1521;53.584;9.938;2023-09-07T09:08:44;10.53;;;6.10;;
3022;SDS011;1521;53.584;9.938;2023-09-07T09:11:18;8.07;;;6.00;;
3022;SDS011;1521;53.584;9.938;2023-09-07T09:13:44;7.13;;;6.00;;
3022;SDS011;1521;53.584;9.938;2023-09-07T09:16:10;7.37;;;6.00;;
3022;SDS011;1521;53.584;9.938;2023-09-07T09:18:38;6.20;;;5.57;;
3022;SDS011;1521;53.584;9.938;2023-09-07T09:21:04;6.43;;;5.73;;
3022;SDS011;1521;53.584;9.938;2023-09-07T09:23:34;6.70;;;5.77;;
3022;SDS011;1521;53.584;9.938;2023-09-07T09:26:02;8.30;;;5.57;;
3022;SDS011;1521;53.584;9.938;2023-09-07T09:28:31;7.50;;;6.03;;
3022;SDS011;1521;53.584;9.938;2023-09-07T09:31:00;9.30;;;5.90;;
3022;SDS011;1521;53.584;9.938;2023-09-07T09:33:27;7.50;;;5.90;;
3022;SDS011;1521;53.584;9.938;2023-09-07T09:35:56;9.83;;;6.70;;
3022;SDS011;1521;53.584;9.938;2023-09-07T09:38:22;7.30;;;5.27;;
3022;SDS011;1521;53.584;9.938;2023-09-07T09:40:48;7.97;;;5.53;;
3022;SDS011;1521;53.584;9.938;2023-09-07T09:43:14;6.97;;;5.80;;
3022;SDS011;1521;53.584;9.938;2023-09-07T09:45:40;6.47;;;5.87;;
3022;SDS011;1521;53.584;9.938;2023-09-07T09:48:06;6.73;;;6.07;;
3022;SDS011;1521;53.584;9.938;2023-09-07T09:50:33;12.40;;;6.00;;
3022;SDS011;1521;53.584;9.938;2023-09-07T09:53:06;7.63;;;5.53;;
3022;SDS011;1521;53.584;9.938;2023-09-07T09:55:32;7.13;;;5.77;;
3022;SDS011;1521;53.584;9.938;2023-09-07T09:57:59;6.83;;;6.10;;
3022;SDS011;1521;53.584;9.938;2023-09-07T10:00:25;7.77;;;5.83;;
3022;SDS011;1521;53.584;9.938;2023-09-07T10:03:02;6.63;;;5.57;;
3022;SDS011;1521;53.584;9.938;2023-09-07T10:05:33;6.90;;;5.80;;
3022;SDS011;1521;53.584;9.938;2023-09-07T10:08:03;6.97;;;6.03;;
3022;SDS011;1521;53.584;9.938;2023-09-07T10:10:35;8.87;;;6.40;;
3022;SDS011;1521;53.584;9.938;2023-09-07T10:13:01;6.40;;;5.80;;
3022;SDS011;1521;53.584;9.938;2023-09-07T10:15:28;11.93;;;6.03;;
3022;SDS011;1521;53.584;9.938;2023-09-07T10:23:19;7.00;;;5.17;;
3022;SDS011;1521;53.584;9.938;2023-09-07T10:25:48;6.13;;;5.20;;
3022;SDS011;1521;53.584;9.938;2023-09-07T10:30:45;6.87;;;5.07;;
3022;SDS011;1521;53.584;9.938;2023-09-07T10:33:28;6.23;;;5.10;;
3022;SDS011;1521;53.584;9.938;2023-09-07T10:35:54;6.10;;;4.83;;
3022;SDS011;1521;53.584;9.938;2023-09-07T10:38:20;9.87;;;5.30;;
3022;SDS011;1521;53.584;9.938;2023-09-07T10:40:47;7.70;;;4.90;;
3022;SDS011;1521;53.584;9.938;2023-09-07T10:43:12;5.20;;;4.70;;
3022;SDS011;1521;53.584;9.938;2023-09-07T10:45:38;5.10;;;4.60;;
3022;SDS011;1521;53.584;9.938;2023-09-07T10:48:04;7.70;;;5.30;;
3022;SDS011;1521;53.584;9.938;2023-09-07T10:50:30;6.37;;;4.90;;
3022;SDS011;1521;53.584;9.938;2023-09-07T10:53:06;5.80;;;4.90;;
3022;SDS011;1521;53.584;9.938;2023-09-07T10:55:36;7.47;;;4.50;;
3022;SDS011;1521;53.584;9.938;2023-09-07T10:58:03;6.40;;;4.30;;
3022;SDS011;1521;53.584;9.938;2023-09-07T11:00:29;6.57;;;4.60;;
3022;SDS011;1521;53.584;9.938;2023-09-07T11:02:55;4.97;;;4.57;;
3022;SDS011;1521;53.584;9.938;2023-09-07T11:05:20;9.07;;;7.03;;
3022;SDS011;1521;53.584;9.938;2023-09-07T11:07:46;8.53;;;4.47;;
3022;SDS011;1521;53.584;9.938;2023-09-07T11:10:11;6.27;;;4.40;;
3022;SDS011;1521;53.584;9.938;2023-09-07T11:12:38;8.30;;;3.90;;
3022;SDS011;1521;53.584;9.938;2023-09-07T11:15:05;6.30;;;4.70;;
3022;SDS011;1521;53.584;9.938;2023-09-07T11:17:33;4.37;;;3.90;;
3022;SDS011;1521;53.584;9.938;2023-09-07T11:20:03;5.30;;;4.43;;
3022;SDS011;1521;53.584;9.938;2023-09-07T11:22:31;4.80;;;4.27;;
3022;SDS011;1521;53.584;9.938;2023-09-07T11:24:58;7.33;;;4.00;;
3022;SDS011;1521;53.584;9.938;2023-09-07T11:27:28;9.00;;;4.97;;
3022;SDS011;1521;53.584;9.938;2023-09-07T11:29:55;5.60;;;4.37;;
3022;SDS011;1521;53.584;9.938;2023-09-07T11:32:22;5.33;;;4.13;;
3022;SDS011;1521;53.584;9.938;2023-09-07T11:34:49;7.13;;;4.07;;
3022;SDS011;1521;53.584;9.938;2023-09-07T11:37:16;7.13;;;4.30;;
3022;SDS011;1521;53.584;9.938;2023-09-07T11:39:43;5.33;;;4.30;;
3022;SDS011;1521;53.584;9.938;2023-09-07T11:42:09;5.90;;;3.97;;
3022;SDS011;1521;53.584;9.938;2023-09-07T11:44:35;6.60;;;4.10;;
3022;SDS011;1521;53.584;9.938;2023-09-07T11:47:00;6.60;;;4.13;;
3022;SDS011;1521;53.584;9.938;2023-09-07T11:49:26;4.30;;;3.90;;
3022;SDS011;1521;53.584;9.938;2023-09-07T11:51:51;4.47;;;4.03;;
3022;SDS011;1521;53.584;9.938;2023-09-07T11:54:17;5.73;;;3.90;;
3022;SDS011;1521;53.584;9.938;2023-09-07T11:56:43;4.87;;;4.37;;
3022;SDS011;1521;53.584;9.938;2023-09-07T11:59:10;6.30;;;4.20;;
3022;SDS011;1521;53.584;9.938;2023-09-07T12:01:36;11.10;;;3.93;;
3022;SDS011;1521;53.584;9.938;2023-09-07T12:04:03;4.37;;;3.97;;
3022;SDS011;1521;53.584;9.938;2023-09-07T12:06:30;4.30;;;3.80;;
3022;SDS011;1521;53.584;9.938;2023-09-07T12:08:59;6.43;;;3.70;;
3022;SDS011;1521;53.584;9.938;2023-09-07T12:11:26;4.30;;;3.87;;
3022;SDS011;1521;53.584;9.938;2023-09-07T12:13:52;5.47;;;4.30;;
3022;SDS011;1521;53.584;9.938;2023-09-07T12:16:17;8.33;;;3.97;;
3022;SDS011;1521;53.584;9.938;2023-09-07T12:18:43;4.20;;;3.70;;
3022;SDS011;1521;53.584;9.938;2023-09-07T12:21:08;5.30;;;4.17;;
3022;SDS011;1521;53.584;9.938;2023-09-07T12:23:34;6.83;;;4.50;;
3022;SDS011;1521;53.584;9.938;2023-09-07T12:26:00;6.00;;;4.50;;
3022;SDS011;1521;53.584;9.938;2023-09-07T12:28:26;7.77;;;4.60;;
3022;SDS011;1521;53.584;9.938;2023-09-07T12:30:52;14.37;;;4.50;;
3022;SDS011;1521;53.584;9.938;2023-09-07T12:33:17;5.37;;;4.97;;
3022;SDS011;1521;53.584;9.938;2023-09-07T12:35:43;4.67;;;4.37;;
3022;SDS011;1521;53.584;9.938;2023-09-07T12:38:08;15.17;;;4.40;;
3022;SDS011;1521;53.584;9.938;2023-09-07T12:40:36;5.60;;;4.13;;
3022;SDS011;1521;53.584;9.938;2023-09-07T12:43:01;4.77;;;4.37;;
3022;SDS011;1521;53.584;9.938;2023-09-07T12:45:27;7.40;;;4.20;;
3022;SDS011;1521;53.584;9.938;2023-09-07T12:47:53;4.47;;;4.07;;
3022;SDS011;1521;53.584;9.938;2023-09-07T12:50:18;4.87;;;4.47;;
3022;SDS011;1521;53.584;9.938;2023-09-07T12:52:44;3.90;;;3.60;;
3022;SDS011;1521;53.584;9.938;2023-09-07T12:55:09;5.90;;;3.93;;
3022;SDS011;1521;53.584;9.938;2023-09-07T12:57:35;3.97;;;3.57;;
3022;SDS011;1521;53.584;9.938;2023-09-07T13:00:04;4.50;;;4.10;;
3022;SDS011;1521;53.584;9.938;2023-09-07T13:02:31;5.17;;;4.00;;
3022;SDS011;1521;53.584;9.938;2023-09-07T13:04:57;4.40;;;4.00;;
3022;SDS011;1521;53.584;9.938;2023-09-07T13:07:22;5.47;;;4.07;;
3022;SDS011;1521;53.584;9.938;2023-09-07T13:09:48;6.63;;;3.27;;
3022;SDS011;1521;53.584;9.938;2023-09-07T13:12:14;5.47;;;4.10;;
3022;SDS011;1521;53.584;9.938;2023-09-07T13:14:40;7.67;;;4.20;;
3022;SDS011;1521;53.584;9.938;2023-09-07T13:17:05;5.10;;;4.17;;
3022;SDS011;1521;53.584;9.938;2023-09-07T13:19:34;5.67;;;3.70;;
3022;SDS011;1521;53.584;9.938;2023-09-07T13:22:00;5.33;;;4.37;;
3022;SDS011;1521;53.584;9.938;2023-09-07T13:24:25;4.93;;;4.27;;
3022;SDS011;1521;53.584;9.938;2023-09-07T13:26:51;5.83;;;4.57;;
3022;SDS011;1521;53.584;9.938;2023-09-07T13:29:17;5.07;;;4.13;;
3022;SDS011;1521;53.584;9.938;2023-09-07T13:31:42;5.53;;;4.40;;
3022;SDS011;1521;53.584;9.938;2023-09-07T13:34:08;5.03;;;4.00;;
3022;SDS011;1521;53.584;9.938;2023-09-07T13:36:33;5.33;;;3.97;;
3022;SDS011;1521;53.584;9.938;2023-09-07T13:38:59;5.23;;;3.77;;
3022;SDS011;1521;53.584;9.938;2023-09-07T13:41:25;4.20;;;3.80;;
3022;SDS011;1521;53.584;9.938;2023-09-07T13:43:50;5.93;;;4.30;;
3022;SDS011;1521;53.584;9.938;2023-09-07T13:46:16;9.37;;;4.00;;
3022;SDS011;1521;53.584;9.938;2023-09-07T13:48:42;4.13;;;3.73;;
3022;SDS011;1521;53.584;9.938;2023-09-07T13:51:07;6.27;;;4.20;;
3022;SDS011;1521;53.584;9.938;2023-09-07T13:53:33;4.60;;;4.20;;
3022;SDS011;1521;53.584;9.938;2023-09-07T13:55:58;7.30;;;4.60;;
3022;SDS011;1521;53.584;9.938;2023-09-07T13:58:24;8.80;;;4.40;;
3022;SDS011;1521;53.584;9.938;2023-09-07T14:00:50;9.00;;;4.43;;
3022;SDS011;1521;53.584;9.938;2023-09-07T14:03:16;4.17;;;3.63;;
3022;SDS011;1521;53.584;9.938;2023-09-07T14:05:41;6.70;;;3.77;;
3022;SDS011;1521;53.584;9.938;2023-09-07T14:08:07;5.57;;;4.17;;
3022;SDS011;1521;53.584;9.938;2023-09-07T14:10:32;8.73;;;4.30;;
3022;SDS011;1521;53.584;9.938;2023-09-07T14:12:58;4.53;;;4.00;;
3022;SDS011;1521;53.584;9.938;2023-09-07T14:15:24;5.73;;;4.07;;
3022;SDS011;1521;53.584;9.938;2023-09-07T14:17:49;4.80;;;4.20;;
3022;SDS011;1521;53.584;9.938;2023-09-07T14:20:15;4.33;;;4.00;;
3022;SDS011;1521;53.584;9.938;2023-09-07T14:22:41;5.20;;;4.20;;
3022;SDS011;1521;53.584;9.938;2023-09-07T14:25:07;5.10;;;4.00;;
3022;SDS011;1521;53.584;9.938;2023-09-07T14:27:32;4.70;;;3.97;;
3022;SDS011;1521;53.584;9.938;2023-09-07T14:29:58;4.77;;;4.10;;
3022;SDS011;1521;53.584;9.938;2023-09-07T14:32:23;6.93;;;4.47;;
3022;SDS011;1521;53.584;9.938;2023-09-07T14:34:49;6.83;;;4.30;;
3022;SDS011;1521;53.584;9.938;2023-09-07T14:37:15;5.60;;;4.10;;
3022;SDS011;1521;53.584;9.938;2023-09-07T14:39:40;5.40;;;4.10;;
3022;SDS011;1521;53.584;9.938;2023-09-07T14:42:12;4.67;;;4.20;;
3022;SDS011;1521;53.584;9.938;2023-09-07T14:44:41;4.67;;;3.90;;
3022;SDS011;1521;53.584;9.938;2023-09-07T14:47:07;6.63;;;4.47;;
3022;SDS011;1521;53.584;9.938;2023-09-07T14:49:32;5.60;;;4.10;;
3022;SDS011;1521;53.584;9.938;2023-09-07T14:51:58;5.13;;;4.40;;
3022;SDS011;1521;53.584;9.938;2023-09-07T14:54:24;12.50;;;4.07;;
3022;SDS011;1521;53.584;9.938;2023-09-07T14:56:50;8.83;;;4.17;;
3022;SDS011;1521;53.584;9.938;2023-09-07T14:59:15;5.03;;;4.10;;
3022;SDS011;1521;53.584;9.938;2023-09-07T15:01:41;4.63;;;4.17;;
3022;SDS011;1521;53.584;9.938;2023-09-07T15:04:07;5.13;;;4.60;;
3022;SDS011;1521;53.584;9.938;2023-09-07T15:06:33;5.90;;;4.30;;
3022;SDS011;1521;53.584;9.938;2023-09-07T15:08:59;4.47;;;4.10;;
3022;SDS011;1521;53.584;9.938;2023-09-07T15:11:24;4.40;;;4.10;;